Time;durP1;ratioP1;P1;durP2;ratioP2;P2;SDS_P1;SDS_P2;PMS_P1;PMS_P2;Temp;Humidity;BMP_temperature;BMP_pressure;BME280_temperature;BME280_humidity;BME280_pressure;Samples;Min_cycle;Max_cycle;Signal;HPM_P1;HPM_P2
2023/08/01 00:02:19;;;;;;;4.78;3.03;;;;;;;15.68;100.00;99528.47;5092314;28;20036;-75
2023/08/01 00:04:45;;;;;;;6.80;3.00;;;;;;;15.65;100.00;99531.69;5084998;28;20032;-75
2023/08/01 00:07:10;;;;;;;5.82;2.85;;;;;;;15.35;100.00;99480.84;5069806;28;20033;-75
2023/08/01 00:09:35;;;;;;;7.93;3.55;;;;;;;15.54;100.00;99521.06;5070054;28;20035;-76
2023/08/01 00:12:01;;;;;;;5.55;2.58;;;;;;;15.49;100.00;99519.13;5070540;28;20117;-76
2023/08/01 00:14:26;;;;;;;8.35;3.28;;;;;;;15.49;100.00;99516.41;5092225;28;20032;-75
2023/08/01 00:16:53;;;;;;;5.32;2.97;;;;;;;15.48;100.00;99507.47;5091212;28;20103;-75
2023/08/01 00:19:19;;;;;;;7.15;3.13;;;;;;;15.47;100.00;99521.28;5072643;28;20057;-75
2023/08/01 00:21:44;;;;;;;9.25;3.53;;;;;;;15.43;100.00;99510.16;5056070;28;20029;-76
2023/08/01 00:24:10;;;;;;;6.85;3.38;;;;;;;15.45;100.00;99518.03;5073503;28;20039;-75
2023/08/01 00:26:41;;;;;;;12.85;4.82;;;;;;;15.32;100.00;99486.78;5087955;28;20032;-75
2023/08/01 00:29:07;;;;;;;29.70;6.75;;;;;;;15.56;100.00;99511.56;5092771;28;20028;-75
2023/08/01 00:31:32;;;;;;;10.75;5.32;;;;;;;15.45;100.00;99497.16;5109964;28;20394;-76
2023/08/01 00:33:58;;;;;;;28.88;5.57;;;;;;;15.61;100.00;99519.72;5093016;28;20032;-75
2023/08/01 00:36:23;;;;;;;30.45;5.43;;;;;;;15.63;100.00;99511.31;5093082;28;20848;-76
2023/08/01 00:38:48;;;;;;;38.35;5.80;;;;;;;15.60;100.00;99509.16;5075993;28;20039;-76
2023/08/01 00:41:14;;;;;;;34.05;5.38;;;;;;;15.58;100.00;99516.75;5092313;28;20028;-75
2023/08/01 00:43:39;;;;;;;24.98;5.13;;;;;;;15.58;100.00;99505.88;5092365;28;20138;-76
2023/08/01 00:46:06;;;;;;;28.88;6.85;;;;;;;15.40;100.00;99485.47;5092026;28;20036;-75
2023/08/01 00:48:32;;;;;;;20.25;5.22;;;;;;;15.58;100.00;99508.59;5093835;28;20027;-76
2023/08/01 00:51:00;;;;;;;48.75;7.22;;;;;;;15.59;100.00;99502.91;5093862;28;20106;-76
2023/08/01 00:53:26;;;;;;;10.27;4.95;;;;;;;15.60;100.00;99499.13;5093280;28;20506;-75
2023/08/01 00:55:55;;;;;;;15.65;5.57;;;;;;;15.51;100.00;99487.97;5093268;28;20024;-76
2023/08/01 00:58:20;;;;;;;12.38;4.95;;;;;;;15.61;100.00;99502.66;5091671;28;20070;-76
2023/08/01 01:00:46;;;;;;;14.43;5.80;;;;;;;15.46;100.00;99481.69;5074770;28;20510;-76
2023/08/01 01:03:13;;;;;;;28.85;6.13;;;;;;;15.49;100.00;99492.00;5105197;28;20039;-76
2023/08/01 01:06:02;;;;;;;25.40;5.22;;;;;;;15.57;100.00;99498.84;5094421;28;20027;-75
2023/08/01 01:08:28;;;;;;;20.70;5.10;;;;;;;15.56;100.00;99497.19;5111850;28;20035;-76
2023/08/01 01:10:53;;;;;;;32.17;4.80;;;;;;;15.44;100.00;99476.56;5112547;28;20035;-75
2023/08/01 01:13:19;;;;;;;31.25;5.43;;;;;;;15.40;100.00;99469.22;5112173;28;20028;-75
2023/08/01 01:15:44;;;;;;;25.23;5.57;;;;;;;15.46;100.00;99481.69;5094955;28;20034;-75
2023/08/01 01:18:10;;;;;;;37.25;6.05;;;;;;;15.45;100.00;99480.06;5094849;28;20554;-76
2023/08/01 01:20:36;;;;;;;13.00;5.68;;;;;;;15.38;100.00;99464.03;5112138;28;20482;-75
2023/08/01 01:23:06;;;;;;;23.58;5.28;;;;;;;15.31;100.00;99449.09;5112936;28;20561;-76
2023/08/01 01:25:32;;;;;;;55.50;6.70;;;;;;;15.30;100.00;99451.00;5116655;28;20024;-75
2023/08/01 01:27:59;;;;;;;13.95;4.90;;;;;;;15.38;100.00;99464.03;5113397;28;20039;-75
2023/08/01 01:30:27;;;;;;;14.23;4.43;;;;;;;15.42;100.00;99465.13;5113167;27;20036;-75
2023/08/01 01:32:53;;;;;;;10.85;5.07;;;;;;;15.42;100.00;99462.44;5115517;28;20062;-76
2023/08/01 01:35:19;;;;;;;14.10;4.82;;;;;;;15.02;100.00;99389.88;5097784;28;20494;-76
2023/08/01 01:37:44;;;;;;;15.57;4.70;;;;;;;15.42;100.00;99451.59;5094950;28;20176;-76
2023/08/01 01:40:10;;;;;;;6.93;4.20;;;;;;;15.35;100.00;99436.66;5094808;28;20027;-76
2023/08/01 01:42:36;;;;;;;14.27;5.38;;;;;;;15.42;100.00;99446.16;5113276;28;20023;-76
2023/08/01 01:45:02;;;;;;;22.25;5.75;;;;;;;15.43;100.00;99449.69;5112833;28;20027;-75
2023/08/01 01:47:27;;;;;;;10.85;4.40;;;;;;;15.33;100.00;99423.38;5111802;28;20043;-76
2023/08/01 01:49:53;;;;;;;20.90;5.45;;;;;;;15.43;100.00;99428.84;5094441;28;20051;-76
2023/08/01 01:52:18;;;;;;;18.50;4.72;;;;;;;15.47;100.00;99437.25;5094353;28;20028;-76
2023/08/01 01:54:43;;;;;;;25.10;5.60;;;;;;;15.46;100.00;99431.03;5094379;28;20088;-76
2023/08/01 01:57:09;;;;;;;11.80;3.95;;;;;;;15.49;100.00;99430.47;5111937;28;20027;-76
2023/08/01 01:59:34;;;;;;;22.42;5.03;;;;;;;15.55;100.00;99427.78;5111303;28;20063;-76
2023/08/01 02:02:00;;;;;;;26.42;5.82;;;;;;;15.48;100.00;99426.13;5094333;28;20561;-76
2023/08/01 02:04:25;;;;;;;88.13;7.93;;;;;;;15.28;100.00;99415.22;5112540;28;20031;-75
2023/08/01 02:06:52;;;;;;;31.60;4.70;;;;;;;15.40;100.00;99434.78;5094186;28;20031;-76
2023/08/01 02:09:18;;;;;;;85.80;8.10;;;;;;;15.38;100.00;99414.44;5111649;28;20027;-76
2023/08/01 02:11:43;;;;;;;76.65;6.05;;;;;;;15.40;100.00;99429.38;5094689;28;20046;-76
2023/08/01 02:14:08;;;;;;;87.05;6.50;;;;;;;15.37;100.00;99418.25;5094353;28;20032;-76
2023/08/01 02:16:34;;;;;;;136.98;9.05;;;;;;;15.43;100.00;99418.00;5112106;28;20395;-76
2023/08/01 02:18:59;;;;;;;50.38;6.70;;;;;;;15.51;100.00;99420.19;5111999;28;20081;-75
2023/08/01 02:21:25;;;;;;;79.55;5.40;;;;;;;15.46;100.00;99411.22;5112958;28;20047;-76
2023/08/01 02:23:50;;;;;;;66.95;5.88;;;;;;;15.40;100.00;99415.81;5096458;28;20034;-75
2023/08/01 02:26:15;;;;;;;48.67;5.63;;;;;;;15.37;100.00;99408.22;5110714;28;20390;-76
2023/08/01 02:28:41;;;;;;;96.32;7.53;;;;;;;15.49;100.00;99413.41;5110946;28;20031;-76
2023/08/01 02:31:07;;;;;;;129.88;7.45;;;;;;;15.43;100.00;99412.59;5111114;28;20028;-76
2023/08/01 02:33:32;;;;;;;125.60;7.32;;;;;;;15.34;100.00;99408.75;5093590;28;20423;-75
2023/08/01 02:35:58;;;;;;;52.33;5.70;;;;;;;15.35;100.00;99404.94;5111098;28;20016;-75
2023/08/01 02:38:23;;;;;;;51.03;5.63;;;;;;;15.42;100.00;99412.84;5111588;28;20545;-76
2023/08/01 02:40:48;;;;;;;117.13;7.40;;;;;;;15.44;100.00;99405.25;5110345;28;20521;-76
2023/08/01 02:43:14;;;;;;;32.97;5.32;;;;;;;15.50;100.00;99399.59;5109761;28;20076;-75
2023/08/01 02:45:42;;;;;;;51.78;5.68;;;;;;;15.56;100.00;99400.41;5093274;28;20088;-76
2023/08/01 02:48:07;;;;;;;35.92;5.05;;;;;;;15.56;100.00;99399.59;5081270;28;20109;-76
2023/08/01 02:50:34;;;;;;;133.90;6.53;;;;;;;15.34;100.00;99383.53;5090424;28;20048;-75
2023/08/01 02:52:59;;;;;;;136.90;7.05;;;;;;;15.46;100.00;99394.94;5074039;28;20036;-75
2023/08/01 02:55:25;;;;;;;83.30;7.38;;;;;;;15.58;100.00;99398.25;5091132;28;20020;-75
2023/08/01 02:57:50;;;;;;;127.78;8.15;;;;;;;15.69;100.00;99390.97;5107715;28;20035;-76
2023/08/01 03:00:17;;;;;;;94.90;7.22;;;;;;;15.56;100.00;99392.28;5107419;28;20036;-76
2023/08/01 03:02:43;;;;;;;183.05;9.43;;;;;;;15.70;100.00;99387.22;5084576;28;20055;-75
2023/08/01 03:05:09;;;;;;;99.82;9.50;;;;;;;15.76;100.00;99379.88;5070813;28;20033;-75
2023/08/01 03:07:35;;;;;;;228.35;9.73;;;;;;;15.71;100.00;99383.41;5053794;28;20547;-76
2023/08/01 03:10:01;;;;;;;114.50;8.95;;;;;;;15.65;100.00;99381.72;5054168;28;20527;-76
2023/08/01 03:12:27;;;;;;;174.35;8.88;;;;;;;15.68;100.00;99375.81;5080216;28;20024;-76
2023/08/01 03:14:52;;;;;;;225.02;11.13;;;;;;;15.77;100.00;99376.91;5091307;28;20544;-75
2023/08/01 03:17:17;;;;;;;106.28;8.65;;;;;;;15.71;100.00;99369.84;5080707;28;20036;-75
2023/08/01 03:19:43;;;;;;;238.13;11.50;;;;;;;15.76;100.00;99372.59;5071688;28;20044;-75
2023/08/01 03:22:11;;;;;;;171.85;9.77;;;;;;;15.44;100.00;99360.00;5070033;28;20032;-75
2023/08/01 03:24:36;;;;;;;247.70;13.85;;;;;;;15.47;100.00;99354.03;5052950;28;20066;-75
2023/08/01 03:27:03;;;;;;;161.27;9.75;;;;;;;15.65;100.00;99374.41;5084949;28;20028;-75
2023/08/01 03:29:29;;;;;;;169.85;10.40;;;;;;;15.55;100.00;99354.59;5090997;28;20352;-75
2023/08/01 03:31:54;;;;;;;176.35;9.52;;;;;;;15.46;100.00;99370.56;5089872;28;20036;-75
2023/08/01 03:34:19;;;;;;;121.30;9.77;;;;;;;15.36;100.00;99330.69;5107201;28;20028;-76
2023/08/01 03:36:45;;;;;;;130.75;10.23;;;;;;;15.82;100.00;99374.19;5089996;28;20513;-76
2023/08/01 03:39:10;;;;;;;156.07;12.10;;;;;;;15.91;100.00;99371.78;5089732;28;20544;-76
2023/08/01 03:41:37;;;;;;;110.72;11.80;;;;;;;15.96;100.00;99369.09;5073386;28;20032;-75
2023/08/01 03:44:02;;;;;;;268.00;12.88;;;;;;;15.64;100.00;99361.94;5075896;28;20039;-74
2023/08/01 03:46:28;;;;;;;145.57;11.10;;;;;;;15.63;100.00;99337.78;5091047;28;20032;-75
2023/08/01 03:48:53;;;;;;;218.32;15.77;;;;;;;15.80;100.00;99368.25;5089411;28;20036;-75
2023/08/01 03:51:20;;;;;;;123.88;13.95;;;;;;;15.92;100.00;99370.69;5089148;28;20051;-75
2023/08/01 03:53:45;;;;;;;226.45;13.07;;;;;;;15.79;100.00;99365.78;5091653;28;20069;-75
2023/08/01 03:56:11;;;;;;;136.35;12.25;;;;;;;15.67;100.00;99341.66;5093588;28;20127;-75
2023/08/01 03:58:37;;;;;;;58.22;10.27;;;;;;;15.66;100.00;99357.09;5094776;28;20040;-75
2023/08/01 04:01:02;;;;;;;80.38;9.00;;;;;;;15.65;100.00;99354.63;5092708;28;20169;-76
2023/08/01 04:03:27;;;;;;;58.90;10.85;;;;;;;15.78;100.00;99350.59;5085845;28;20031;-75
2023/08/01 04:05:53;;;;;;;62.85;9.05;;;;;;;15.84;100.00;99352.25;5072909;28;20033;-75
2023/08/01 04:08:19;;;;;;;63.42;9.70;;;;;;;15.67;100.00;99350.59;5073891;28;20055;-75
2023/08/01 04:10:44;;;;;;;48.40;8.88;;;;;;;15.47;100.00;99332.34;5065315;28;20036;-75
2023/08/01 04:13:10;;;;;;;56.78;11.02;;;;;;;15.71;100.00;99318.31;5075750;28;20034;-75
2023/08/01 04:15:35;;;;;;;59.28;8.68;;;;;;;15.82;100.00;99330.00;5095038;28;20383;-75
2023/08/01 04:18:01;;;;;;;49.03;6.88;;;;;;;15.65;100.00;99325.59;5099706;28;20078;-75
2023/08/01 04:20:26;;;;;;;48.90;9.43;;;;;;;15.73;100.00;99329.72;5093300;28;20115;-75
2023/08/01 04:22:51;;;;;;;54.88;8.57;;;;;;;15.66;100.00;99331.81;5110015;28;20042;-74
2023/08/01 04:25:17;;;;;;;78.75;8.25;;;;;;;15.66;100.00;99331.81;5072257;28;20029;-75
2023/08/01 04:27:43;;;;;;;64.78;8.20;;;;;;;15.58;100.00;99322.34;5072758;28;20056;-75
2023/08/01 04:30:08;;;;;;;72.75;9.35;;;;;;;15.69;100.00;99315.91;5072442;28;20025;-75
2023/08/01 04:32:34;;;;;;;49.13;7.35;;;;;;;15.79;100.00;99322.41;5072536;28;20509;-75
2023/08/01 04:34:59;;;;;;;60.72;8.63;;;;;;;15.76;100.00;99323.78;5071812;28;20034;-75
2023/08/01 04:37:25;;;;;;;84.68;9.82;;;;;;;15.72;100.00;99307.19;5039324;28;20020;-76
2023/08/01 04:39:51;;;;;;;50.65;8.68;;;;;;;15.77;100.00;99335.44;5055461;28;20024;-75
2023/08/01 04:42:16;;;;;;;50.95;9.30;;;;;;;15.65;100.00;99309.31;5038886;28;20574;-75
2023/08/01 04:44:42;;;;;;;45.45;8.77;;;;;;;15.76;100.00;99325.63;5071911;28;20039;-76
2023/08/01 04:47:07;;;;;;;59.58;9.73;;;;;;;15.73;100.00;99329.72;5054734;28;20399;-75
2023/08/01 04:49:33;;;;;;;90.63;12.18;;;;;;;15.71;100.00;99321.03;5073148;28;20075;-75
2023/08/01 04:52:00;;;;;;;45.45;11.02;;;;;;;15.78;100.00;99316.16;5055413;28;20028;-75
2023/08/01 04:54:25;;;;;;;47.17;12.80;;;;;;;16.09;100.00;99322.44;5039257;28;20028;-75
2023/08/01 04:56:50;;;;;;;49.72;13.18;;;;;;;16.04;100.00;99317.00;5055477;28;20077;-75
2023/08/01 04:59:16;;;;;;;62.00;13.52;;;;;;;16.23;100.00;99321.88;5072324;28;20033;-76
2023/08/01 05:01:41;;;;;;;75.45;15.68;;;;;;;16.09;100.00;99308.88;5055253;28;20064;-75
2023/08/01 05:04:07;;;;;;;71.22;14.32;;;;;;;15.91;100.00;99279.56;5085552;28;20140;-75
2023/08/01 05:06:32;;;;;;;41.22;14.60;;;;;;;16.48;100.00;99318.31;5092908;28;20483;-75
2023/08/01 05:08:57;;;;;;;40.10;13.88;;;;;;;16.60;100.00;99316.13;5092240;28;20124;-75
2023/08/01 05:11:23;;;;;;;38.63;16.60;;;;;;;16.57;100.00;99313.94;5058049;28;20235;-75
2023/08/01 05:13:48;;;;;;;32.78;15.60;;;;;;;16.55;100.00;99302.53;5095380;28;20497;-75
2023/08/01 05:16:13;;;;;;;29.23;15.02;;;;;;;16.79;100.00;99309.03;5091645;28;20043;-75
2023/08/01 05:18:39;;;;;;;37.58;15.85;;;;;;;16.90;100.00;99302.47;5075751;28;20496;-75
2023/08/01 05:21:04;;;;;;;28.27;15.10;;;;;;;16.83;100.00;99315.53;5055593;28;20032;-75
2023/08/01 05:23:30;;;;;;;26.25;14.38;;;;;;;16.69;100.00;99303.59;5092557;28;20103;-75
2023/08/01 05:25:55;;;;;;;23.75;13.82;;;;;;;16.82;100.00;99305.78;5092597;28;20020;-75
2023/08/01 05:28:20;;;;;;;25.25;14.35;;;;;;;16.93;100.00;99309.25;5090793;28;20043;-75
2023/08/01 05:30:47;;;;;;;29.75;14.27;;;;;;;16.89;100.00;99303.56;5066231;28;20024;-75
2023/08/01 05:33:12;;;;;;;20.92;13.10;;;;;;;16.93;100.00;99297.59;5091054;28;20026;-75
2023/08/01 05:35:38;;;;;;;21.27;12.75;;;;;;;16.90;100.00;99299.75;5091152;28;20024;-75
2023/08/01 05:38:03;;;;;;;18.08;12.35;;;;;;;16.82;100.00;99307.66;5067884;28;20028;-75
2023/08/01 05:40:29;;;;;;;24.77;14.30;;;;;;;16.63;100.00;99299.28;5088395;28;20367;-75
2023/08/01 05:42:54;;;;;;;18.70;12.30;;;;;;;16.64;100.00;99299.00;5066883;28;20029;-75
2023/08/01 05:45:20;;;;;;;19.05;12.98;;;;;;;16.66;100.00;99275.09;5089450;28;20032;-76
2023/08/01 05:47:45;;;;;;;15.45;12.65;;;;;;;16.81;100.00;99306.84;5045601;28;20411;-75
2023/08/01 05:50:10;;;;;;;21.35;12.93;;;;;;;16.80;100.00;99291.63;5089867;28;20074;-75
2023/08/01 05:52:36;;;;;;;15.68;12.07;;;;;;;16.95;100.00;99300.81;5092825;28;20449;-75
2023/08/01 05:55:02;;;;;;;18.92;11.23;;;;;;;16.85;100.00;99294.34;5090947;28;20036;-75
2023/08/01 05:57:27;;;;;;;16.52;10.75;;;;;;;17.00;100.00;99298.91;5090903;28;20036;-75
2023/08/01 05:59:53;;;;;;;12.65;9.95;;;;;;;16.81;100.00;99276.97;5092502;28;20032;-75
2023/08/01 06:02:18;;;;;;;13.65;8.93;;;;;;;16.95;100.00;99285.31;5093215;28;20046;-76
2023/08/01 06:04:44;;;;;;;12.05;9.00;;;;;;;17.34;100.00;99304.44;5092061;28;20032;-75
2023/08/01 06:07:09;;;;;;;10.68;6.90;;;;;;;17.29;100.00;99290.06;5093961;28;20040;-75
2023/08/01 06:09:34;;;;;;;8.43;6.47;;;;;;;17.20;100.00;99291.75;5116191;28;20054;-77
2023/08/01 06:12:00;;;;;;;8.45;6.30;;;;;;;17.14;100.00;99304.53;5097365;28;20120;-74
2023/08/01 06:14:25;;;;;;;9.45;6.57;;;;;;;17.18;100.00;99278.41;5093614;28;20058;-76
2023/08/01 06:16:51;;;;;;;10.13;6.30;;;;;;;17.57;100.00;99299.41;5090633;28;20027;-77
2023/08/01 06:19:16;;;;;;;10.40;6.00;;;;;;;17.66;100.00;99284.13;5091266;28;20390;-76
2023/08/01 06:21:42;;;;;;;7.30;5.90;;;;;;;18.03;100.00;99290.94;5101497;28;20051;-76
2023/08/01 06:24:08;;;;;;;9.52;4.88;;;;;;;17.99;100.00;99292.63;5082130;28;20028;-77
2023/08/01 06:26:34;;;;;;;7.47;4.88;;;;;;;18.24;100.00;99292.38;5089563;28;20496;-76
2023/08/01 06:28:59;;;;;;;7.85;4.80;;;;;;;18.49;100.00;99269.53;5090159;28;20032;-77
2023/08/01 06:31:25;;;;;;;5.80;3.90;;;;;;;18.62;100.00;99283.56;5078534;28;20033;-76
2023/08/01 06:33:51;;;;;;;6.65;4.25;;;;;;;18.63;100.00;99280.53;5090714;28;20394;-77
2023/08/01 06:36:17;;;;;;;6.60;4.20;;;;;;;18.91;100.00;99283.53;5074386;28;20024;-78
2023/08/01 06:38:43;;;;;;;7.68;3.97;;;;;;;18.75;100.00;99288.34;5074505;28;20039;-77
2023/08/01 06:41:08;;;;;;;7.03;4.32;;;;;;;18.15;100.00;99258.72;5073317;28;20391;-77
2023/08/01 06:43:34;;;;;;;5.68;3.85;;;;;;;18.13;100.00;99279.97;5089986;28;20024;-77
2023/08/01 06:46:00;;;;;;;7.25;4.10;;;;;;;17.96;100.00;99282.28;5081123;28;20103;-77
2023/08/01 06:48:26;;;;;;;6.18;3.88;;;;;;;18.00;100.00;99281.44;5072647;28;20035;-77
2023/08/01 06:50:51;;;;;;;6.85;4.10;;;;;;;18.15;100.00;99280.50;5054506;28;20061;-76
2023/08/01 06:53:17;;;;;;;6.85;4.15;;;;;;;18.11;100.00;99293.03;5071572;28;20029;-76
2023/08/01 06:55:42;;;;;;;5.30;4.35;;;;;;;18.11;100.00;99290.31;5071236;28;20550;-79
2023/08/01 06:58:08;;;;;;;7.95;4.22;;;;;;;18.12;100.00;99282.97;5054740;28;20039;-78
2023/08/01 07:00:33;;;;;;;8.15;4.00;;;;;;;18.15;100.00;99294.09;5093340;28;20052;-77
2023/08/01 07:02:58;;;;;;;6.68;4.10;;;;;;;18.35;100.00;99300.47;5077239;28;20024;-77
2023/08/01 07:05:24;;;;;;;5.88;4.20;;;;;;;18.37;100.00;99280.00;5054411;28;20052;-76
2023/08/01 07:07:49;;;;;;;5.25;4.13;;;;;;;18.60;100.00;99292.00;5081120;28;20036;-77
2023/08/01 07:10:15;;;;;;;5.00;4.10;;;;;;;18.70;100.00;99281.00;5091308;28;20028;-76
2023/08/01 07:12:40;;;;;;;7.10;3.72;;;;;;;18.69;100.00;99286.75;5056891;28;20020;-76
2023/08/01 07:15:06;;;;;;;6.13;3.72;;;;;;;18.74;100.00;99287.53;5063542;28;20032;-77
2023/08/01 07:17:33;;;;;;;7.35;4.18;;;;;;;18.63;100.00;99280.53;5061631;28;20066;-77
2023/08/01 07:19:58;;;;;;;5.60;4.10;;;;;;;18.32;100.00;99290.94;5064041;28;20486;-76
2023/08/01 07:22:23;;;;;;;5.05;3.72;;;;;;;18.42;100.00;99274.50;5090530;28;20546;-76
2023/08/01 07:24:53;;;;;;;4.65;3.70;;;;;;;18.78;100.00;99283.13;5074036;28;20034;-76
2023/08/01 07:27:19;;;;;;;4.72;3.95;;;;;;;18.84;100.00;99293.94;5107447;28;20028;-74
2023/08/01 07:29:44;;;;;;;7.18;4.00;;;;;;;18.43;100.00;99258.97;5094419;28;20030;-76
2023/08/01 07:32:11;;;;;;;6.55;3.97;;;;;;;18.72;100.00;99284.28;5089996;28;20020;-76
2023/08/01 07:34:36;;;;;;;4.82;4.22;;;;;;;18.85;100.00;99285.50;5080973;28;20047;-77
2023/08/01 07:37:02;;;;;;;5.78;4.05;;;;;;;18.90;100.00;99266.34;5093997;28;20028;-77
2023/08/01 07:39:27;;;;;;;7.68;4.13;;;;;;;18.78;100.00;99282.31;5089378;28;20044;-76
2023/08/01 07:41:53;;;;;;;5.63;3.65;;;;;;;18.75;100.00;99283.72;5058141;28;20368;-75
2023/08/01 07:44:18;;;;;;;6.32;4.13;;;;;;;18.64;100.00;99276.72;5076932;28;20089;-75
2023/08/01 07:46:44;;;;;;;4.80;3.85;;;;;;;18.62;100.00;99278.13;5071925;28;20028;-76
2023/08/01 07:49:09;;;;;;;4.07;3.55;;;;;;;18.62;100.00;99278.91;5056306;28;20048;-76
2023/08/01 07:51:34;;;;;;;6.60;4.00;;;;;;;18.98;100.00;99282.06;5092207;28;20031;-76
2023/08/01 07:54:00;;;;;;;10.48;4.22;;;;;;;18.94;100.00;99277.47;5067964;28;20032;-77
2023/08/01 07:56:25;;;;;;;6.22;3.83;;;;;;;18.76;100.00;99279.88;5092565;28;20028;-76
2023/08/01 07:58:51;;;;;;;4.57;3.78;;;;;;;19.02;100.00;99282.28;5070802;28;20036;-76
2023/08/01 08:01:16;;;;;;;5.38;3.72;;;;;;;18.72;100.00;99257.03;5072052;28;20028;-76
2023/08/01 08:03:42;;;;;;;5.22;3.47;;;;;;;18.73;100.00;99246.94;5076665;28;20043;-77
2023/08/01 08:06:07;;;;;;;4.50;3.25;;;;;;;19.06;100.00;99288.78;5092057;28;20059;-76
2023/08/01 08:08:33;;;;;;;4.25;3.40;;;;;;;18.75;100.00;99283.72;5090757;28;20032;-77
2023/08/01 08:10:59;;;;;;;8.40;3.80;;;;;;;18.77;100.00;99284.25;5074506;28;20039;-77
2023/08/01 08:13:25;;;;;;;5.97;3.22;;;;;;;19.02;100.00;99276.84;5091540;28;20044;-75
2023/08/01 08:15:50;;;;;;;5.32;3.28;;;;;;;18.74;100.00;99265.75;5089383;28;20063;-77
2023/08/01 08:18:18;;;;;;;6.60;3.80;;;;;;;18.79;100.00;99283.94;5071214;28;20025;-77
2023/08/01 08:20:45;;;;;;;5.70;3.13;;;;;;;19.31;100.00;99273.19;5088288;28;20135;-77
2023/08/01 08:23:13;;;;;;;4.25;3.30;;;;;;;19.24;100.00;99274.38;5071244;28;20029;-77
2023/08/01 08:25:39;;;;;;;8.50;3.50;;;;;;;19.25;100.00;99262.34;5088417;28;20052;-78
2023/08/01 08:28:05;;;;;;;5.72;3.00;;;;;;;19.32;100.00;99269.34;5088677;28;20040;-76
2023/08/01 08:30:30;;;;;;;5.68;3.10;;;;;;;19.57;100.00;99270.88;5089999;28;20054;-75
2023/08/01 08:32:57;;;;;;;4.00;3.10;;;;;;;19.38;100.00;99273.63;5090012;28;20039;-77
2023/08/01 08:35:23;;;;;;;4.05;2.80;;;;;;;19.22;100.00;99265.66;5090057;28;20078;-78
2023/08/01 08:37:48;;;;;;;4.05;2.90;;;;;;;19.37;100.00;99261.94;5089590;28;20032;-78
2023/08/01 08:40:14;;;;;;;6.05;2.90;;;;;;;19.58;100.00;99262.41;5090548;28;20395;-77
2023/08/01 08:42:39;;;;;;;5.40;2.75;;;;;;;19.50;100.00;99260.34;5110525;28;20036;-77
2023/08/01 08:45:06;;;;;;;4.28;2.67;;;;;;;19.35;100.00;99246.94;5093598;28;20039;-76
2023/08/01 08:47:36;;;;;;;4.65;2.38;;;;;;;19.37;100.00;99250.19;5109958;28;20035;-77
2023/08/01 08:50:02;;;;;;;5.28;2.83;;;;;;;19.52;100.00;99265.53;5093775;28;20078;-77
2023/08/01 08:52:27;;;;;;;6.05;2.38;;;;;;;19.56;100.00;99247.44;5097393;28;20459;-77
2023/08/01 08:54:53;;;;;;;6.43;2.50;;;;;;;19.80;100.00;99253.66;5093616;28;20028;-73
2023/08/01 08:57:20;;;;;;;5.65;2.17;;;;;;;20.10;100.00;99257.78;5109995;28;20028;-74
2023/08/01 08:59:47;;;;;;;3.67;2.20;;;;;;;20.23;100.00;99255.38;5094082;28;20032;-76
2023/08/01 09:02:14;;;;;;;4.13;1.90;;;;;;;20.11;100.00;99259.41;5094615;28;20032;-74
2023/08/01 09:04:40;;;;;;;5.63;2.25;;;;;;;19.94;100.00;99256.44;5098164;28;20042;-73
2023/08/01 09:07:12;;;;;;;4.13;2.10;;;;;;;20.18;100.00;99254.34;5097863;28;20024;-80
2023/08/01 09:09:38;;;;;;;6.55;1.90;;;;;;;20.61;100.00;99256.06;5077172;28;20054;-75
2023/08/01 09:12:04;;;;;;;4.03;2.17;;;;;;;20.50;100.00;99241.75;5075808;28;20111;-77
2023/08/01 09:14:32;;;;;;;5.93;2.00;;;;;;;20.47;100.00;99253.28;5076248;28;20024;-76
2023/08/01 09:17:06;;;;;;;4.00;1.90;;;;;;;20.51;100.00;99253.53;5060158;28;20032;-75
2023/08/01 09:19:32;;;;;;;5.30;2.35;;;;;;;20.39;100.00;99248.50;5093396;28;20036;-78
2023/08/01 09:21:58;;;;;;;7.18;2.03;;;;;;;20.46;100.00;99246.19;5059669;28;20036;-76
2023/08/01 09:24:23;;;;;;;4.85;2.30;;;;;;;20.78;100.00;99258.16;5094970;28;20070;-78
2023/08/01 09:26:49;;;;;;;5.40;1.77;;;;;;;21.02;100.00;99256.00;5080115;28;20683;-76
2023/08/01 09:29:20;;;;;;;2.55;1.80;;;;;;;21.19;100.00;99260.03;5093329;28;20059;-78
2023/08/01 09:31:45;;;;;;;3.17;1.90;;;;;;;21.02;100.00;99255.19;5093837;28;20024;-77
2023/08/01 09:34:37;;;;;;;2.80;1.88;;;;;;;21.01;100.00;99251.66;5093914;28;20455;-77
2023/08/01 09:37:03;;;;;;;3.40;1.90;;;;;;;21.30;100.00;99251.31;5088711;28;20040;-77
2023/08/01 09:39:28;;;;;;;4.60;1.75;;;;;;;21.34;100.00;99235.09;5081264;28;20418;-77
2023/08/01 09:42:02;;;;;;;3.58;1.80;;;;;;;21.37;100.00;99245.44;5038274;28;20119;-77
2023/08/01 09:44:28;;;;;;;4.82;1.80;;;;;;;21.32;100.00;99248.25;5054854;28;20518;-77
2023/08/01 09:47:03;;;;;;;5.55;1.80;;;;;;;21.38;100.00;99252.53;5072412;28;20082;-77
2023/08/01 09:49:30;;;;;;;2.78;1.70;;;;;;;21.56;100.00;99250.75;5072873;28;20527;-76
2023/08/01 09:51:57;;;;;;;3.92;1.85;;;;;;;21.42;100.00;99250.78;5056748;28;20035;-75
2023/08/01 09:54:23;;;;;;;4.15;1.70;;;;;;;21.41;100.00;99243.69;5054664;28;20402;-75
2023/08/01 09:56:52;;;;;;;5.32;1.90;;;;;;;21.42;100.00;99239.84;5073128;28;20414;-77
2023/08/01 09:59:21;;;;;;;5.70;1.75;;;;;;;21.77;99.09;99253.81;5073394;28;20029;-77
2023/08/01 10:01:50;;;;;;;4.82;1.90;;;;;;;22.08;97.50;99242.88;5073447;28;20111;-77
2023/08/01 10:04:17;;;;;;;5.95;1.50;;;;;;;22.28;94.49;99249.78;5055021;28;20036;-77
2023/08/01 10:06:46;;;;;;;3.92;1.60;;;;;;;22.02;94.43;99244.97;5071448;28;20395;-76
2023/08/01 10:09:13;;;;;;;4.05;1.55;;;;;;;22.67;93.36;99237.22;5074158;28;20031;-77
2023/08/01 10:11:40;;;;;;;5.65;1.90;;;;;;;22.34;93.53;99240.31;5073875;28;20032;-76
2023/08/01 10:14:06;;;;;;;4.97;1.83;;;;;;;22.15;93.28;99231.47;5071737;28;20077;-77
2023/08/01 10:16:34;;;;;;;4.82;1.52;;;;;;;22.21;92.00;99236.53;5073529;28;20028;-77
2023/08/01 10:19:00;;;;;;;4.25;1.50;;;;;;;21.90;91.66;99213.78;5064740;28;20032;-76
2023/08/01 10:21:27;;;;;;;5.65;1.50;;;;;;;22.20;90.62;99234.94;5074571;28;20028;-77
2023/08/01 10:23:55;;;;;;;4.45;1.40;;;;;;;22.35;90.28;99227.41;5076251;28;20111;-77
2023/08/01 10:26:20;;;;;;;3.58;1.60;;;;;;;22.32;89.90;99223.38;5091810;28;20032;-76
2023/08/01 10:28:51;;;;;;;4.30;1.73;;;;;;;22.44;88.67;99234.53;5060641;28;20058;-75
2023/08/01 10:31:18;;;;;;;6.50;1.65;;;;;;;22.76;87.39;99235.31;5094854;28;20023;-76
2023/08/01 10:33:47;;;;;;;5.10;1.50;;;;;;;22.86;87.71;99235.00;5076454;28;20031;-76
2023/08/01 10:36:23;;;;;;;4.13;1.40;;;;;;;22.93;87.26;99229.91;5093266;28;20059;-76
2023/08/01 10:38:54;;;;;;;5.10;1.58;;;;;;;22.92;87.69;99222.78;5090652;28;20486;-76
2023/08/01 10:41:27;;;;;;;4.20;1.58;;;;;;;23.13;87.18;99222.19;5091089;28;20067;-75
2023/08/01 10:44:15;;;;;;;3.65;1.50;;;;;;;22.60;82.80;99206.72;5092040;28;20035;-75
2023/08/01 10:46:48;;;;;;;7.15;1.40;;;;;;;22.66;84.26;99217.22;5107566;28;20504;-75
2023/08/01 10:49:13;;;;;;;4.72;1.50;;;;;;;22.74;85.21;99216.41;5090548;28;20130;-76
2023/08/01 10:51:39;;;;;;;4.95;1.50;;;;;;;22.73;85.29;99224.97;5073679;28;20032;-75
2023/08/01 10:54:04;;;;;;;5.18;1.88;;;;;;;22.34;85.58;99201.13;5073327;28;20032;-76
2023/08/01 10:56:31;;;;;;;4.07;1.52;;;;;;;22.40;85.25;99217.13;5092183;28;20015;-76
2023/08/01 10:58:57;;;;;;;6.28;1.70;;;;;;;22.07;87.17;99216.63;5074104;28;20066;-75
2023/08/01 11:01:23;;;;;;;7.25;1.55;;;;;;;21.85;88.31;99222.91;5107769;28;20081;-76
2023/08/01 11:03:48;;;;;;;3.13;1.50;;;;;;;21.90;88.08;99214.59;5083109;28;20032;-76
2023/08/01 11:06:14;;;;;;;2.95;1.30;;;;;;;22.09;87.46;99221.78;5074176;28;20060;-76
2023/08/01 11:08:41;;;;;;;3.78;1.17;;;;;;;22.32;85.38;99215.16;5102478;28;20492;-76
2023/08/01 11:11:14;;;;;;;3.38;1.33;;;;;;;22.02;83.66;99201.13;5091913;28;20505;-76
2023/08/01 11:13:39;;;;;;;3.35;1.40;;;;;;;22.64;81.89;99205.75;5089345;28;20024;-77
2023/08/01 11:16:06;;;;;;;4.50;1.35;;;;;;;23.36;78.78;99203.63;5089075;28;20035;-76